sensor_id;sensor_type;location;lat;lon;timestamp;P1;durP1;ratioP1;P2;durP2;ratioP2
36995;SDS011;22905;50.340;10.776;2022-10-04T00:13:40;9.65;;;3.40;;
36995;SDS011;22905;50.340;10.776;2022-10-04T00:18:43;9.50;;;3.40;;
36995;SDS011;22905;50.340;10.776;2022-10-04T00:23:44;14.77;;;4.95;;
36995;SDS011;22905;50.340;10.776;2022-10-04T00:28:45;19.55;;;4.68;;
36995;SDS011;22905;50.340;10.776;2022-10-04T00:44:09;14.63;;;5.80;;
36995;SDS011;22905;50.340;10.776;2022-10-04T00:49:19;20.67;;;5.18;;
36995;SDS011;22905;50.340;10.776;2022-10-04T00:59:39;12.65;;;3.85;;
36995;SDS011;22905;50.340;10.776;2022-10-04T01:09:51;9.68;;;3.88;;
36995;SDS011;22905;50.340;10.776;2022-10-04T01:19:56;13.98;;;4.20;;
36995;SDS011;22905;50.340;10.776;2022-10-04T01:24:56;12.27;;;3.83;;
36995;SDS011;22905;50.340;10.776;2022-10-04T01:29:56;71.57;;;26.67;;
36995;SDS011;22905;50.340;10.776;2022-10-04T01:34:57;43.70;;;16.13;;
36995;SDS011;22905;50.340;10.776;2022-10-04T01:39:58;21.70;;;8.27;;
36995;SDS011;22905;50.340;10.776;2022-10-04T01:50:15;10.07;;;5.68;;
36995;SDS011;22905;50.340;10.776;2022-10-04T01:55:25;12.32;;;6.18;;
36995;SDS011;22905;50.340;10.776;2022-10-04T02:00:28;21.08;;;8.63;;
36995;SDS011;22905;50.340;10.776;2022-10-04T02:05:31;14.52;;;6.80;;
36995;SDS011;22905;50.340;10.776;2022-10-04T02:10:34;9.18;;;4.63;;
36995;SDS011;22905;50.340;10.776;2022-10-04T02:20:39;5.47;;;3.20;;
36995;SDS011;22905;50.340;10.776;2022-10-04T02:25:40;5.57;;;3.00;;
36995;SDS011;22905;50.340;10.776;2022-10-04T02:30:42;4.27;;;2.57;;
36995;SDS011;22905;50.340;10.776;2022-10-04T02:36:05;3.88;;;2.72;;
36995;SDS011;22905;50.340;10.776;2022-10-04T02:41:10;6.80;;;2.88;;
36995;SDS011;22905;50.340;10.776;2022-10-04T02:56:20;6.13;;;3.63;;
36995;SDS011;22905;50.340;10.776;2022-10-04T03:01:25;7.13;;;3.78;;
36995;SDS011;22905;50.340;10.776;2022-10-04T03:06:29;6.13;;;4.10;;
36995;SDS011;22905;50.340;10.776;2022-10-04T03:11:34;10.40;;;4.15;;
36995;SDS011;22905;50.340;10.776;2022-10-04T03:16:37;9.93;;;4.35;;
36995;SDS011;22905;50.340;10.776;2022-10-04T03:26:41;10.10;;;6.07;;
36995;SDS011;22905;50.340;10.776;2022-10-04T03:31:45;5.85;;;4.28;;
36995;SDS011;22905;50.340;10.776;2022-10-04T03:36:47;7.90;;;4.00;;
36995;SDS011;22905;50.340;10.776;2022-10-04T03:41:49;5.38;;;3.30;;
36995;SDS011;22905;50.340;10.776;2022-10-04T03:46:49;5.28;;;3.25;;
36995;SDS011;22905;50.340;10.776;2022-10-04T03:51:49;7.13;;;4.40;;
36995;SDS011;22905;50.340;10.776;2022-10-04T03:56:50;5.25;;;3.45;;
36995;SDS011;22905;50.340;10.776;2022-10-04T04:07:29;3.67;;;2.90;;
36995;SDS011;22905;50.340;10.776;2022-10-04T04:22:35;7.18;;;4.93;;
36995;SDS011;22905;50.340;10.776;2022-10-04T04:27:36;8.82;;;5.07;;
36995;SDS011;22905;50.340;10.776;2022-10-04T04:37:40;8.10;;;4.60;;
36995;SDS011;22905;50.340;10.776;2022-10-04T04:42:40;20.17;;;8.27;;
36995;SDS011;22905;50.340;10.776;2022-10-04T04:47:42;24.17;;;9.90;;
36995;SDS011;22905;50.340;10.776;2022-10-04T04:52:45;19.80;;;8.52;;
36995;SDS011;22905;50.340;10.776;2022-10-04T04:57:50;30.27;;;8.80;;
36995;SDS011;22905;50.340;10.776;2022-10-04T05:02:55;20.02;;;8.07;;
36995;SDS011;22905;50.340;10.776;2022-10-04T05:13:15;15.07;;;7.05;;
36995;SDS011;22905;50.340;10.776;2022-10-04T05:18:32;15.88;;;7.28;;
36995;SDS011;22905;50.340;10.776;2022-10-04T05:23:33;17.77;;;8.05;;
36995;SDS011;22905;50.340;10.776;2022-10-04T05:28:33;14.90;;;9.65;;
36995;SDS011;22905;50.340;10.776;2022-10-04T05:33:43;17.70;;;11.03;;
36995;SDS011;22905;50.340;10.776;2022-10-04T05:38:52;38.25;;;18.02;;
36995;SDS011;22905;50.340;10.776;2022-10-04T05:44:16;16.90;;;9.05;;
36995;SDS011;22905;50.340;10.776;2022-10-04T05:49:18;23.75;;;11.05;;
36995;SDS011;22905;50.340;10.776;2022-10-04T05:54:20;19.70;;;9.65;;
36995;SDS011;22905;50.340;10.776;2022-10-04T06:04:47;39.67;;;12.85;;
36995;SDS011;22905;50.340;10.776;2022-10-04T06:10:18;21.00;;;9.32;;
36995;SDS011;22905;50.340;10.776;2022-10-04T06:21:03;34.13;;;14.50;;
36995;SDS011;22905;50.340;10.776;2022-10-04T06:26:13;21.23;;;11.27;;
36995;SDS011;22905;50.340;10.776;2022-10-04T06:41:36;22.33;;;8.88;;
36995;SDS011;22905;50.340;10.776;2022-10-04T06:46:42;20.70;;;9.07;;
36995;SDS011;22905;50.340;10.776;2022-10-04T07:13:12;24.92;;;9.85;;
36995;SDS011;22905;50.340;10.776;2022-10-04T07:18:23;31.13;;;11.27;;
36995;SDS011;22905;50.340;10.776;2022-10-04T07:23:30;26.90;;;11.73;;
36995;SDS011;22905;50.340;10.776;2022-10-04T07:28:33;27.92;;;11.38;;
36995;SDS011;22905;50.340;10.776;2022-10-04T07:33:59;24.25;;;9.65;;
36995;SDS011;22905;50.340;10.776;2022-10-04T07:39:06;24.13;;;9.15;;
36995;SDS011;22905;50.340;10.776;2022-10-04T07:44:34;18.48;;;9.23;;
36995;SDS011;22905;50.340;10.776;2022-10-04T07:49:37;22.17;;;8.70;;
36995;SDS011;22905;50.340;10.776;2022-10-04T07:59:48;28.45;;;9.90;;
36995;SDS011;22905;50.340;10.776;2022-10-04T08:15:37;23.53;;;12.53;;
36995;SDS011;22905;50.340;10.776;2022-10-04T08:20:58;24.92;;;11.82;;
36995;SDS011;22905;50.340;10.776;2022-10-04T09:03:02;19.30;;;10.88;;
36995;SDS011;22905;50.340;10.776;2022-10-04T09:08:18;20.23;;;9.75;;
36995;SDS011;22905;50.340;10.776;2022-10-04T09:14:02;19.35;;;9.82;;
36995;SDS011;22905;50.340;10.776;2022-10-04T09:30:13;14.50;;;9.18;;
36995;SDS011;22905;50.340;10.776;2022-10-04T09:46:04;20.52;;;9.90;;
36995;SDS011;22905;50.340;10.776;2022-10-04T10:07:09;16.90;;;8.52;;
36995;SDS011;22905;50.340;10.776;2022-10-04T10:12:26;15.38;;;7.43;;
36995;SDS011;22905;50.340;10.776;2022-10-04T10:49:54;15.00;;;7.72;;
36995;SDS011;22905;50.340;10.776;2022-10-04T11:00:27;13.60;;;6.60;;
36995;SDS011;22905;50.340;10.776;2022-10-04T11:16:55;10.77;;;5.20;;
36995;SDS011;22905;50.340;10.776;2022-10-04T11:28:01;16.10;;;5.43;;
36995;SDS011;22905;50.340;10.776;2022-10-04T11:38:50;18.27;;;6.15;;
36995;SDS011;22905;50.340;10.776;2022-10-04T12:10:37;9.63;;;5.30;;
36995;SDS011;22905;50.340;10.776;2022-10-04T12:15:40;9.75;;;5.20;;
36995;SDS011;22905;50.340;10.776;2022-10-04T12:20:54;9.82;;;5.68;;
36995;SDS011;22905;50.340;10.776;2022-10-04T12:31:41;10.65;;;5.00;;
36995;SDS011;22905;50.340;10.776;2022-10-04T12:37:04;8.20;;;4.15;;
36995;SDS011;22905;50.340;10.776;2022-10-04T12:53:15;7.10;;;3.88;;
36995;SDS011;22905;50.340;10.776;2022-10-04T13:15:02;8.38;;;4.40;;
36995;SDS011;22905;50.340;10.776;2022-10-04T13:25:50;6.78;;;3.60;;
36995;SDS011;22905;50.340;10.776;2022-10-04T13:52:07;5.80;;;2.92;;
36995;SDS011;22905;50.340;10.776;2022-10-04T13:58:13;8.95;;;3.50;;
36995;SDS011;22905;50.340;10.776;2022-10-04T14:03:28;7.15;;;2.35;;
36995;SDS011;22905;50.340;10.776;2022-10-04T14:35:14;7.88;;;2.67;;
36995;SDS011;22905;50.340;10.776;2022-10-04T14:51:13;8.18;;;3.45;;
36995;SDS011;22905;50.340;10.776;2022-10-04T15:01:32;7.82;;;3.80;;
36995;SDS011;22905;50.340;10.776;2022-10-04T15:17:25;11.95;;;2.80;;
36995;SDS011;22905;50.340;10.776;2022-10-04T15:22:29;5.75;;;2.85;;
36995;SDS011;22905;50.340;10.776;2022-10-04T15:27:40;5.95;;;3.33;;
36995;SDS011;22905;50.340;10.776;2022-10-04T15:38:32;7.00;;;3.42;;
36995;SDS011;22905;50.340;10.776;2022-10-04T15:43:41;7.97;;;2.90;;
36995;SDS011;22905;50.340;10.776;2022-10-04T15:59:44;5.80;;;3.92;;
36995;SDS011;22905;50.340;10.776;2022-10-04T16:04:56;7.07;;;4.45;;
36995;SDS011;22905;50.340;10.776;2022-10-04T16:10:05;13.90;;;6.65;;
36995;SDS011;22905;50.340;10.776;2022-10-04T16:15:30;16.02;;;6.05;;
36995;SDS011;22905;50.340;10.776;2022-10-04T16:20:35;12.02;;;6.57;;
36995;SDS011;22905;50.340;10.776;2022-10-04T16:25:42;21.25;;;12.65;;
36995;SDS011;22905;50.340;10.776;2022-10-04T16:30:47;17.33;;;9.45;;
36995;SDS011;22905;50.340;10.776;2022-10-04T16:36:12;16.02;;;9.65;;
36995;SDS011;22905;50.340;10.776;2022-10-04T16:41:28;11.00;;;7.00;;
36995;SDS011;22905;50.340;10.776;2022-10-04T16:46:35;14.73;;;7.67;;
36995;SDS011;22905;50.340;10.776;2022-10-04T16:57:21;15.85;;;8.85;;
36995;SDS011;22905;50.340;10.776;2022-10-04T17:08:06;29.17;;;14.77;;
36995;SDS011;22905;50.340;10.776;2022-10-04T17:50:27;25.52;;;12.48;;
36995;SDS011;22905;50.340;10.776;2022-10-04T17:55:48;18.88;;;11.73;;
36995;SDS011;22905;50.340;10.776;2022-10-04T18:05:59;25.52;;;11.82;;
36995;SDS011;22905;50.340;10.776;2022-10-04T18:11:18;26.40;;;12.77;;
36995;SDS011;22905;50.340;10.776;2022-10-04T18:16:27;26.00;;;12.43;;
36995;SDS011;22905;50.340;10.776;2022-10-04T18:21:29;32.83;;;14.32;;
36995;SDS011;22905;50.340;10.776;2022-10-04T18:26:31;38.53;;;13.32;;
36995;SDS011;22905;50.340;10.776;2022-10-04T18:31:35;33.40;;;16.65;;
36995;SDS011;22905;50.340;10.776;2022-10-04T18:36:44;53.50;;;22.48;;
36995;SDS011;22905;50.340;10.776;2022-10-04T18:42:21;48.33;;;23.15;;
36995;SDS011;22905;50.340;10.776;2022-10-04T18:47:37;72.90;;;32.53;;
36995;SDS011;22905;50.340;10.776;2022-10-04T18:52:45;68.97;;;30.90;;
36995;SDS011;22905;50.340;10.776;2022-10-04T19:03:43;77.95;;;33.03;;
36995;SDS011;22905;50.340;10.776;2022-10-04T19:24:39;45.00;;;22.83;;
36995;SDS011;22905;50.340;10.776;2022-10-04T19:40:22;40.55;;;19.00;;
36995;SDS011;22905;50.340;10.776;2022-10-04T19:50:48;37.80;;;17.58;;
36995;SDS011;22905;50.340;10.776;2022-10-04T19:55:52;36.90;;;18.50;;
36995;SDS011;22905;50.340;10.776;2022-10-04T20:00:54;38.65;;;16.40;;
36995;SDS011;22905;50.340;10.776;2022-10-04T20:05:55;30.88;;;13.85;;
36995;SDS011;22905;50.340;10.776;2022-10-04T20:11:10;25.75;;;14.27;;
36995;SDS011;22905;50.340;10.776;2022-10-04T20:42:43;27.42;;;12.90;;
36995;SDS011;22905;50.340;10.776;2022-10-04T20:47:56;26.20;;;12.60;;
36995;SDS011;22905;50.340;10.776;2022-10-04T20:53:02;24.67;;;11.00;;
36995;SDS011;22905;50.340;10.776;2022-10-04T21:03:28;21.03;;;10.53;;
36995;SDS011;22905;50.340;10.776;2022-10-04T21:08:29;18.05;;;10.68;;
36995;SDS011;22905;50.340;10.776;2022-10-04T21:18:49;23.50;;;13.35;;
36995;SDS011;22905;50.340;10.776;2022-10-04T21:23:49;19.67;;;10.57;;
36995;SDS011;22905;50.340;10.776;2022-10-04T21:28:51;18.27;;;11.63;;
36995;SDS011;22905;50.340;10.776;2022-10-04T21:38:52;17.30;;;8.80;;
36995;SDS011;22905;50.340;10.776;2022-10-04T21:43:53;15.77;;;7.82;;
36995;SDS011;22905;50.340;10.776;2022-10-04T21:48:53;14.73;;;7.93;;
36995;SDS011;22905;50.340;10.776;2022-10-04T21:53:53;16.45;;;8.05;;
36995;SDS011;22905;50.340;10.776;2022-10-04T21:58:54;10.75;;;6.40;;
36995;SDS011;22905;50.340;10.776;2022-10-04T22:03:54;13.40;;;7.43;;
36995;SDS011;22905;50.340;10.776;2022-10-04T22:08:54;18.50;;;8.23;;
36995;SDS011;22905;50.340;10.776;2022-10-04T22:13:54;27.80;;;9.25;;
36995;SDS011;22905;50.340;10.776;2022-10-04T22:18:55;14.55;;;7.93;;
36995;SDS011;22905;50.340;10.776;2022-10-04T22:23:55;13.90;;;7.22;;
36995;SDS011;22905;50.340;10.776;2022-10-04T22:28:55;22.50;;;9.20;;
36995;SDS011;22905;50.340;10.776;2022-10-04T22:33:56;21.98;;;9.30;;
36995;SDS011;22905;50.340;10.776;2022-10-04T22:39:02;17.93;;;9.27;;
36995;SDS011;22905;50.340;10.776;2022-10-04T22:44:17;18.90;;;8.70;;
36995;SDS011;22905;50.340;10.776;2022-10-04T22:49:21;17.88;;;8.35;;
36995;SDS011;22905;50.340;10.776;2022-10-04T22:54:32;20.13;;;8.88;;
36995;SDS011;22905;50.340;10.776;2022-10-04T22:59:35;23.75;;;9.40;;
36995;SDS011;22905;50.340;10.776;2022-10-04T23:04:37;17.38;;;9.63;;
36995;SDS011;22905;50.340;10.776;2022-10-04T23:09:39;17.60;;;8.68;;
36995;SDS011;22905;50.340;10.776;2022-10-04T23:14:40;14.30;;;7.28;;
36995;SDS011;22905;50.340;10.776;2022-10-04T23:19:40;15.00;;;7.57;;
36995;SDS011;22905;50.340;10.776;2022-10-04T23:24:41;21.15;;;7.93;;
36995;SDS011;22905;50.340;10.776;2022-10-04T23:29:41;14.93;;;8.85;;
36995;SDS011;22905;50.340;10.776;2022-10-04T23:34:46;16.13;;;7.97;;
36995;SDS011;22905;50.340;10.776;2022-10-04T23:39:47;15.98;;;7.00;;
36995;SDS011;22905;50.340;10.776;2022-10-04T23:44:48;16.25;;;8.38;;
36995;SDS011;22905;50.340;10.776;2022-10-04T23:49:50;12.82;;;8.43;;
36995;SDS011;22905;50.340;10.776;2022-10-04T23:54:52;13.55;;;7.40;;
36995;SDS011;22905;50.340;10.776;2022-10-04T23:59:52;20.73;;;7.55;;
